sensor_id;sensor_type;location;lat;lon;timestamp;P1;durP1;ratioP1;P2;durP2;ratioP2
24435;SDS011;12616;52.470;13.436;2022-07-23T00:02:21;7.07;;;6.33;;
24435;SDS011;12616;52.470;13.436;2022-07-23T00:04:48;7.13;;;6.40;;
24435;SDS011;12616;52.470;13.436;2022-07-23T00:07:15;8.07;;;7.37;;
24435;SDS011;12616;52.470;13.436;2022-07-23T00:09:43;7.97;;;7.13;;
24435;SDS011;12616;52.470;13.436;2022-07-23T00:12:09;8.33;;;7.50;;
24435;SDS011;12616;52.470;13.436;2022-07-23T00:14:36;7.57;;;6.87;;
24435;SDS011;12616;52.470;13.436;2022-07-23T00:17:03;8.00;;;6.23;;
24435;SDS011;12616;52.470;13.436;2022-07-23T00:19:30;7.13;;;5.57;;
24435;SDS011;12616;52.470;13.436;2022-07-23T00:21:56;7.70;;;6.90;;
24435;SDS011;12616;52.470;13.436;2022-07-23T00:24:23;7.53;;;6.83;;
24435;SDS011;12616;52.470;13.436;2022-07-23T00:26:51;8.63;;;7.73;;
24435;SDS011;12616;52.470;13.436;2022-07-23T00:29:18;8.10;;;6.33;;
24435;SDS011;12616;52.470;13.436;2022-07-23T00:31:45;8.93;;;6.63;;
24435;SDS011;12616;52.470;13.436;2022-07-23T00:34:12;7.73;;;7.03;;
24435;SDS011;12616;52.470;13.436;2022-07-23T00:36:39;7.80;;;7.10;;
24435;SDS011;12616;52.470;13.436;2022-07-23T00:39:06;9.70;;;7.57;;
24435;SDS011;12616;52.470;13.436;2022-07-23T00:41:33;9.30;;;7.03;;
24435;SDS011;12616;52.470;13.436;2022-07-23T00:44:14;8.23;;;7.50;;
24435;SDS011;12616;52.470;13.436;2022-07-23T00:46:44;7.83;;;7.10;;
24435;SDS011;12616;52.470;13.436;2022-07-23T00:49:12;7.40;;;6.70;;
24435;SDS011;12616;52.470;13.436;2022-07-23T00:51:39;12.20;;;6.70;;
24435;SDS011;12616;52.470;13.436;2022-07-23T00:54:05;7.13;;;6.53;;
24435;SDS011;12616;52.470;13.436;2022-07-23T00:56:32;7.73;;;6.97;;
24435;SDS011;12616;52.470;13.436;2022-07-23T00:58:59;9.67;;;8.20;;
24435;SDS011;12616;52.470;13.436;2022-07-23T01:01:28;12.20;;;7.90;;
24435;SDS011;12616;52.470;13.436;2022-07-23T01:03:54;10.93;;;9.80;;
24435;SDS011;12616;52.470;13.436;2022-07-23T01:06:21;8.87;;;8.07;;
24435;SDS011;12616;52.470;13.436;2022-07-23T01:08:48;9.53;;;7.50;;
24435;SDS011;12616;52.470;13.436;2022-07-23T01:11:15;7.37;;;6.67;;
24435;SDS011;12616;52.470;13.436;2022-07-23T01:13:42;7.77;;;7.07;;
24435;SDS011;12616;52.470;13.436;2022-07-23T01:16:09;8.20;;;7.40;;
24435;SDS011;12616;52.470;13.436;2022-07-23T01:18:37;6.63;;;6.03;;
24435;SDS011;12616;52.470;13.436;2022-07-23T01:21:04;7.37;;;6.70;;
24435;SDS011;12616;52.470;13.436;2022-07-23T01:23:33;9.37;;;7.30;;
24435;SDS011;12616;52.470;13.436;2022-07-23T01:26:00;22.63;;;15.30;;
24435;SDS011;12616;52.470;13.436;2022-07-23T01:28:26;9.10;;;8.20;;
24435;SDS011;12616;52.470;13.436;2022-07-23T01:30:53;7.97;;;7.27;;
24435;SDS011;12616;52.470;13.436;2022-07-23T01:33:20;7.93;;;7.17;;
24435;SDS011;12616;52.470;13.436;2022-07-23T01:35:47;10.57;;;7.43;;
24435;SDS011;12616;52.470;13.436;2022-07-23T01:38:13;7.07;;;6.47;;
24435;SDS011;12616;52.470;13.436;2022-07-23T01:40:41;7.27;;;6.67;;
24435;SDS011;12616;52.470;13.436;2022-07-23T01:43:08;10.03;;;7.10;;
24435;SDS011;12616;52.470;13.436;2022-07-23T01:45:35;9.50;;;7.10;;
24435;SDS011;12616;52.470;13.436;2022-07-23T01:48:01;7.70;;;6.90;;
24435;SDS011;12616;52.470;13.436;2022-07-23T01:50:28;8.50;;;6.40;;
24435;SDS011;12616;52.470;13.436;2022-07-23T01:52:55;9.23;;;6.80;;
24435;SDS011;12616;52.470;13.436;2022-07-23T01:55:22;9.30;;;7.70;;
24435;SDS011;12616;52.470;13.436;2022-07-23T01:57:50;10.73;;;6.60;;
24435;SDS011;12616;52.470;13.436;2022-07-23T02:00:17;9.00;;;7.00;;
24435;SDS011;12616;52.470;13.436;2022-07-23T02:02:44;7.93;;;7.30;;
24435;SDS011;12616;52.470;13.436;2022-07-23T02:05:10;8.70;;;6.77;;
24435;SDS011;12616;52.470;13.436;2022-07-23T02:07:37;7.90;;;7.00;;
24435;SDS011;12616;52.470;13.436;2022-07-23T02:10:04;8.20;;;7.27;;
24435;SDS011;12616;52.470;13.436;2022-07-23T02:12:32;8.90;;;7.07;;
24435;SDS011;12616;52.470;13.436;2022-07-23T02:15:00;9.33;;;7.60;;
24435;SDS011;12616;52.470;13.436;2022-07-23T02:17:26;8.73;;;7.60;;
24435;SDS011;12616;52.470;13.436;2022-07-23T02:19:53;9.40;;;8.50;;
24435;SDS011;12616;52.470;13.436;2022-07-23T02:22:20;8.87;;;8.00;;
24435;SDS011;12616;52.470;13.436;2022-07-23T02:24:47;8.03;;;7.33;;
24435;SDS011;12616;52.470;13.436;2022-07-23T02:27:13;8.10;;;7.30;;
24435;SDS011;12616;52.470;13.436;2022-07-23T02:29:40;8.00;;;7.30;;
24435;SDS011;12616;52.470;13.436;2022-07-23T02:32:08;7.60;;;7.00;;
24435;SDS011;12616;52.470;13.436;2022-07-23T02:34:35;9.33;;;7.87;;
24435;SDS011;12616;52.470;13.436;2022-07-23T02:37:01;9.77;;;8.40;;
24435;SDS011;12616;52.470;13.436;2022-07-23T02:39:28;8.73;;;7.93;;
24435;SDS011;12616;52.470;13.436;2022-07-23T02:41:55;14.20;;;7.97;;
24435;SDS011;12616;52.470;13.436;2022-07-23T02:44:22;8.43;;;7.60;;
24435;SDS011;12616;52.470;13.436;2022-07-23T02:46:48;9.57;;;7.43;;
24435;SDS011;12616;52.470;13.436;2022-07-23T02:49:16;8.03;;;7.03;;
24435;SDS011;12616;52.470;13.436;2022-07-23T02:51:43;8.57;;;7.77;;
24435;SDS011;12616;52.470;13.436;2022-07-23T02:54:10;8.80;;;7.80;;
24435;SDS011;12616;52.470;13.436;2022-07-23T02:56:37;8.83;;;8.00;;
24435;SDS011;12616;52.470;13.436;2022-07-23T02:59:03;7.93;;;7.17;;
24435;SDS011;12616;52.470;13.436;2022-07-23T03:01:30;6.97;;;6.27;;
24435;SDS011;12616;52.470;13.436;2022-07-23T03:03:57;8.40;;;7.20;;
24435;SDS011;12616;52.470;13.436;2022-07-23T03:06:25;7.17;;;6.57;;
24435;SDS011;12616;52.470;13.436;2022-07-23T03:08:51;7.80;;;7.10;;
24435;SDS011;12616;52.470;13.436;2022-07-23T03:11:18;7.97;;;6.77;;
24435;SDS011;12616;52.470;13.436;2022-07-23T03:13:45;6.97;;;6.47;;
24435;SDS011;12616;52.470;13.436;2022-07-23T03:16:12;9.17;;;7.27;;
24435;SDS011;12616;52.470;13.436;2022-07-23T03:18:39;7.73;;;6.87;;
24435;SDS011;12616;52.470;13.436;2022-07-23T03:21:06;9.10;;;7.17;;
24435;SDS011;12616;52.470;13.436;2022-07-23T03:23:34;8.23;;;6.77;;
24435;SDS011;12616;52.470;13.436;2022-07-23T03:26:00;7.23;;;6.53;;
24435;SDS011;12616;52.470;13.436;2022-07-23T03:28:27;6.90;;;6.27;;
24435;SDS011;12616;52.470;13.436;2022-07-23T03:30:54;7.73;;;7.03;;
24435;SDS011;12616;52.470;13.436;2022-07-23T03:33:21;8.73;;;6.70;;
24435;SDS011;12616;52.470;13.436;2022-07-23T03:35:48;8.53;;;7.17;;
24435;SDS011;12616;52.470;13.436;2022-07-23T03:38:15;8.30;;;6.33;;
24435;SDS011;12616;52.470;13.436;2022-07-23T03:40:43;10.10;;;6.70;;
24435;SDS011;12616;52.470;13.436;2022-07-23T03:43:10;7.83;;;6.77;;
24435;SDS011;12616;52.470;13.436;2022-07-23T03:45:37;6.83;;;6.13;;
24435;SDS011;12616;52.470;13.436;2022-07-23T03:48:03;8.00;;;6.17;;
24435;SDS011;12616;52.470;13.436;2022-07-23T03:50:31;6.40;;;5.90;;
24435;SDS011;12616;52.470;13.436;2022-07-23T03:52:57;7.10;;;6.40;;
24435;SDS011;12616;52.470;13.436;2022-07-23T03:55:24;10.70;;;6.77;;
24435;SDS011;12616;52.470;13.436;2022-07-23T03:57:52;8.00;;;5.90;;
24435;SDS011;12616;52.470;13.436;2022-07-23T04:00:19;6.47;;;5.40;;
24435;SDS011;12616;52.470;13.436;2022-07-23T04:02:46;9.20;;;6.10;;
24435;SDS011;12616;52.470;13.436;2022-07-23T04:05:12;8.13;;;5.73;;
24435;SDS011;12616;52.470;13.436;2022-07-23T04:07:39;10.33;;;5.40;;
24435;SDS011;12616;52.470;13.436;2022-07-23T04:10:06;9.90;;;5.00;;
24435;SDS011;12616;52.470;13.436;2022-07-23T04:12:33;5.17;;;4.67;;
24435;SDS011;12616;52.470;13.436;2022-07-23T04:15:02;5.77;;;5.23;;
24435;SDS011;12616;52.470;13.436;2022-07-23T04:17:29;11.10;;;6.17;;
24435;SDS011;12616;52.470;13.436;2022-07-23T04:19:56;10.57;;;6.07;;
24435;SDS011;12616;52.470;13.436;2022-07-23T04:22:22;5.87;;;5.20;;
24435;SDS011;12616;52.470;13.436;2022-07-23T04:24:49;6.03;;;5.07;;
24435;SDS011;12616;52.470;13.436;2022-07-23T04:27:16;4.20;;;3.80;;
24435;SDS011;12616;52.470;13.436;2022-07-23T04:29:42;5.70;;;4.87;;
24435;SDS011;12616;52.470;13.436;2022-07-23T04:32:11;4.30;;;3.70;;
24435;SDS011;12616;52.470;13.436;2022-07-23T04:34:37;9.37;;;4.70;;
24435;SDS011;12616;52.470;13.436;2022-07-23T04:37:04;11.23;;;3.80;;
24435;SDS011;12616;52.470;13.436;2022-07-23T04:39:31;8.50;;;4.60;;
24435;SDS011;12616;52.470;13.436;2022-07-23T04:41:57;7.63;;;4.80;;
24435;SDS011;12616;52.470;13.436;2022-07-23T04:44:24;5.40;;;4.47;;
24435;SDS011;12616;52.470;13.436;2022-07-23T04:46:51;6.27;;;4.90;;
24435;SDS011;12616;52.470;13.436;2022-07-23T04:49:20;9.80;;;5.70;;
24435;SDS011;12616;52.470;13.436;2022-07-23T04:51:47;6.87;;;4.70;;
24435;SDS011;12616;52.470;13.436;2022-07-23T04:54:14;7.90;;;5.40;;
24435;SDS011;12616;52.470;13.436;2022-07-23T04:56:42;9.20;;;5.90;;
24435;SDS011;12616;52.470;13.436;2022-07-23T04:59:09;6.33;;;5.17;;
24435;SDS011;12616;52.470;13.436;2022-07-23T05:01:35;6.53;;;5.30;;
24435;SDS011;12616;52.470;13.436;2022-07-23T05:04:02;9.90;;;5.80;;
24435;SDS011;12616;52.470;13.436;2022-07-23T05:06:30;8.57;;;6.00;;
24435;SDS011;12616;52.470;13.436;2022-07-23T05:08:57;8.63;;;6.00;;
24435;SDS011;12616;52.470;13.436;2022-07-23T05:11:24;5.93;;;5.27;;
24435;SDS011;12616;52.470;13.436;2022-07-23T05:13:51;7.93;;;5.90;;
24435;SDS011;12616;52.470;13.436;2022-07-23T05:16:17;9.60;;;5.90;;
24435;SDS011;12616;52.470;13.436;2022-07-23T05:18:44;6.13;;;5.30;;
24435;SDS011;12616;52.470;13.436;2022-07-23T05:21:11;8.33;;;5.47;;
24435;SDS011;12616;52.470;13.436;2022-07-23T05:23:39;5.90;;;5.30;;
24435;SDS011;12616;52.470;13.436;2022-07-23T05:26:06;9.50;;;6.50;;
24435;SDS011;12616;52.470;13.436;2022-07-23T05:28:32;7.03;;;6.17;;
24435;SDS011;12616;52.470;13.436;2022-07-23T05:30:59;8.47;;;5.67;;
24435;SDS011;12616;52.470;13.436;2022-07-23T05:33:26;11.20;;;6.60;;
24435;SDS011;12616;52.470;13.436;2022-07-23T05:35:53;11.00;;;5.40;;
24435;SDS011;12616;52.470;13.436;2022-07-23T05:38:19;7.90;;;4.50;;
24435;SDS011;12616;52.470;13.436;2022-07-23T05:40:47;5.90;;;5.37;;
24435;SDS011;12616;52.470;13.436;2022-07-23T05:43:14;5.30;;;4.80;;
24435;SDS011;12616;52.470;13.436;2022-07-23T05:45:41;7.73;;;5.70;;
24435;SDS011;12616;52.470;13.436;2022-07-23T05:48:08;8.40;;;5.37;;
24435;SDS011;12616;52.470;13.436;2022-07-23T05:50:34;9.70;;;5.30;;
24435;SDS011;12616;52.470;13.436;2022-07-23T05:53:01;5.67;;;5.17;;
24435;SDS011;12616;52.470;13.436;2022-07-23T05:55:28;14.63;;;5.77;;
24435;SDS011;12616;52.470;13.436;2022-07-23T05:57:58;6.63;;;5.27;;
24435;SDS011;12616;52.470;13.436;2022-07-23T06:00:25;7.37;;;5.93;;
24435;SDS011;12616;52.470;13.436;2022-07-23T06:02:52;9.17;;;6.20;;
24435;SDS011;12616;52.470;13.436;2022-07-23T06:05:19;7.53;;;6.40;;
24435;SDS011;12616;52.470;13.436;2022-07-23T06:07:46;8.83;;;6.27;;
24435;SDS011;12616;52.470;13.436;2022-07-23T06:10:13;12.20;;;7.20;;
24435;SDS011;12616;52.470;13.436;2022-07-23T06:12:40;6.60;;;5.30;;
24435;SDS011;12616;52.470;13.436;2022-07-23T06:15:09;8.73;;;6.50;;
24435;SDS011;12616;52.470;13.436;2022-07-23T06:17:36;7.80;;;6.27;;
24435;SDS011;12616;52.470;13.436;2022-07-23T06:20:05;10.03;;;7.10;;
24435;SDS011;12616;52.470;13.436;2022-07-23T06:22:33;7.80;;;6.37;;
24435;SDS011;12616;52.470;13.436;2022-07-23T06:24:59;11.27;;;6.67;;
24435;SDS011;12616;52.470;13.436;2022-07-23T06:27:26;9.07;;;7.73;;
24435;SDS011;12616;52.470;13.436;2022-07-23T06:29:53;15.03;;;7.50;;
24435;SDS011;12616;52.470;13.436;2022-07-23T06:32:21;11.33;;;7.40;;
24435;SDS011;12616;52.470;13.436;2022-07-23T06:34:48;10.63;;;6.80;;
24435;SDS011;12616;52.470;13.436;2022-07-23T06:37:14;12.87;;;6.73;;
24435;SDS011;12616;52.470;13.436;2022-07-23T06:39:41;10.17;;;8.57;;
24435;SDS011;12616;52.470;13.436;2022-07-23T06:42:08;12.53;;;7.60;;
24435;SDS011;12616;52.470;13.436;2022-07-23T06:44:35;15.67;;;8.53;;
24435;SDS011;12616;52.470;13.436;2022-07-23T06:47:02;17.30;;;8.80;;
24435;SDS011;12616;52.470;13.436;2022-07-23T06:49:30;12.20;;;8.00;;
24435;SDS011;12616;52.470;13.436;2022-07-23T06:51:57;14.47;;;8.40;;
24435;SDS011;12616;52.470;13.436;2022-07-23T06:54:23;8.80;;;7.13;;
24435;SDS011;12616;52.470;13.436;2022-07-23T06:56:50;11.33;;;8.33;;
24435;SDS011;12616;52.470;13.436;2022-07-23T06:59:17;11.53;;;7.63;;
24435;SDS011;12616;52.470;13.436;2022-07-23T07:01:44;9.03;;;8.23;;
24435;SDS011;12616;52.470;13.436;2022-07-23T07:04:10;12.17;;;8.70;;
24435;SDS011;12616;52.470;13.436;2022-07-23T07:06:38;11.63;;;7.97;;
24435;SDS011;12616;52.470;13.436;2022-07-23T07:09:05;9.40;;;7.70;;
24435;SDS011;12616;52.470;13.436;2022-07-23T07:11:32;11.20;;;7.30;;
24435;SDS011;12616;52.470;13.436;2022-07-23T07:13:59;12.30;;;9.50;;
24435;SDS011;12616;52.470;13.436;2022-07-23T07:16:25;25.20;;;18.40;;
24435;SDS011;12616;52.470;13.436;2022-07-23T07:18:52;24.80;;;20.07;;
24435;SDS011;12616;52.470;13.436;2022-07-23T07:21:19;18.67;;;13.40;;
24435;SDS011;12616;52.470;13.436;2022-07-23T07:23:47;17.00;;;10.80;;
24435;SDS011;12616;52.470;13.436;2022-07-23T07:26:13;13.53;;;9.50;;
24435;SDS011;12616;52.470;13.436;2022-07-23T07:28:40;10.77;;;8.20;;
24435;SDS011;12616;52.470;13.436;2022-07-23T07:31:07;8.50;;;7.30;;
24435;SDS011;12616;52.470;13.436;2022-07-23T07:33:34;9.70;;;6.87;;
24435;SDS011;12616;52.470;13.436;2022-07-23T07:36:00;11.83;;;6.10;;
24435;SDS011;12616;52.470;13.436;2022-07-23T07:38:28;8.37;;;7.57;;
24435;SDS011;12616;52.470;13.436;2022-07-23T07:40:56;9.53;;;7.60;;
24435;SDS011;12616;52.470;13.436;2022-07-23T07:43:22;8.70;;;7.63;;
24435;SDS011;12616;52.470;13.436;2022-07-23T07:45:49;10.23;;;7.37;;
24435;SDS011;12616;52.470;13.436;2022-07-23T07:48:16;12.00;;;7.00;;
24435;SDS011;12616;52.470;13.436;2022-07-23T07:50:43;11.10;;;7.80;;
24435;SDS011;12616;52.470;13.436;2022-07-23T07:53:09;13.53;;;8.50;;
24435;SDS011;12616;52.470;13.436;2022-07-23T07:55:36;12.13;;;8.37;;
24435;SDS011;12616;52.470;13.436;2022-07-23T07:58:04;12.20;;;8.63;;
24435;SDS011;12616;52.470;13.436;2022-07-23T08:00:31;10.87;;;9.20;;
24435;SDS011;12616;52.470;13.436;2022-07-23T08:02:58;17.50;;;8.60;;
24435;SDS011;12616;52.470;13.436;2022-07-23T08:05:25;9.80;;;7.87;;
24435;SDS011;12616;52.470;13.436;2022-07-23T08:07:54;8.57;;;7.43;;
24435;SDS011;12616;52.470;13.436;2022-07-23T08:10:21;13.43;;;8.37;;
24435;SDS011;12616;52.470;13.436;2022-07-23T08:12:48;11.40;;;9.17;;
24435;SDS011;12616;52.470;13.436;2022-07-23T08:15:20;9.53;;;8.27;;
24435;SDS011;12616;52.470;13.436;2022-07-23T08:17:48;16.83;;;9.90;;
24435;SDS011;12616;52.470;13.436;2022-07-23T08:20:17;12.90;;;9.43;;
24435;SDS011;12616;52.470;13.436;2022-07-23T08:22:45;16.00;;;10.77;;
24435;SDS011;12616;52.470;13.436;2022-07-23T08:25:13;14.57;;;10.37;;
24435;SDS011;12616;52.470;13.436;2022-07-23T08:27:40;13.63;;;10.60;;
24435;SDS011;12616;52.470;13.436;2022-07-23T08:30:07;14.73;;;12.30;;
24435;SDS011;12616;52.470;13.436;2022-07-23T08:32:48;16.80;;;11.40;;
24435;SDS011;12616;52.470;13.436;2022-07-23T08:35:17;9.60;;;8.60;;
24435;SDS011;12616;52.470;13.436;2022-07-23T08:37:47;8.47;;;7.57;;
24435;SDS011;12616;52.470;13.436;2022-07-23T08:40:14;10.90;;;8.70;;
24435;SDS011;12616;52.470;13.436;2022-07-23T08:42:40;12.23;;;9.00;;
24435;SDS011;12616;52.470;13.436;2022-07-23T08:45:08;11.83;;;7.93;;
24435;SDS011;12616;52.470;13.436;2022-07-23T08:47:36;11.00;;;9.13;;
24435;SDS011;12616;52.470;13.436;2022-07-23T08:50:05;6.87;;;6.23;;
24435;SDS011;12616;52.470;13.436;2022-07-23T08:52:34;11.83;;;7.70;;
24435;SDS011;12616;52.470;13.436;2022-07-23T08:55:02;7.90;;;7.10;;
24435;SDS011;12616;52.470;13.436;2022-07-23T08:57:29;12.60;;;7.90;;
24435;SDS011;12616;52.470;13.436;2022-07-23T08:59:56;9.63;;;7.37;;
24435;SDS011;12616;52.470;13.436;2022-07-23T09:02:23;11.00;;;7.30;;
24435;SDS011;12616;52.470;13.436;2022-07-23T09:04:49;8.80;;;6.57;;
24435;SDS011;12616;52.470;13.436;2022-07-23T09:07:18;10.13;;;7.50;;
24435;SDS011;12616;52.470;13.436;2022-07-23T09:09:44;8.93;;;6.60;;
24435;SDS011;12616;52.470;13.436;2022-07-23T09:12:11;9.60;;;7.40;;
24435;SDS011;12616;52.470;13.436;2022-07-23T09:14:38;9.97;;;7.00;;
24435;SDS011;12616;52.470;13.436;2022-07-23T09:17:10;7.33;;;5.77;;
24435;SDS011;12616;52.470;13.436;2022-07-23T09:19:37;13.03;;;8.10;;
24435;SDS011;12616;52.470;13.436;2022-07-23T09:22:21;9.37;;;6.27;;
24435;SDS011;12616;52.470;13.436;2022-07-23T09:25:07;13.30;;;6.60;;
24435;SDS011;12616;52.470;13.436;2022-07-23T09:27:46;6.97;;;6.17;;
24435;SDS011;12616;52.470;13.436;2022-07-23T09:30:18;11.23;;;6.67;;
24435;SDS011;12616;52.470;13.436;2022-07-23T09:35:47;8.60;;;6.40;;
24435;SDS011;12616;52.470;13.436;2022-07-23T09:38:17;7.03;;;5.90;;
24435;SDS011;12616;52.470;13.436;2022-07-23T09:40:44;10.30;;;7.77;;
24435;SDS011;12616;52.470;13.436;2022-07-23T09:43:12;7.60;;;6.43;;
24435;SDS011;12616;52.470;13.436;2022-07-23T09:45:39;7.80;;;7.00;;
24435;SDS011;12616;52.470;13.436;2022-07-23T09:48:12;8.10;;;6.93;;
24435;SDS011;12616;52.470;13.436;2022-07-23T09:50:40;7.43;;;6.57;;
24435;SDS011;12616;52.470;13.436;2022-07-23T09:53:07;8.73;;;6.10;;
24435;SDS011;12616;52.470;13.436;2022-07-23T09:55:36;7.20;;;6.50;;
24435;SDS011;12616;52.470;13.436;2022-07-23T09:58:03;7.50;;;6.03;;
24435;SDS011;12616;52.470;13.436;2022-07-23T10:00:31;6.13;;;5.60;;
24435;SDS011;12616;52.470;13.436;2022-07-23T10:02:59;6.70;;;6.00;;
24435;SDS011;12616;52.470;13.436;2022-07-23T10:05:26;7.80;;;6.47;;
24435;SDS011;12616;52.470;13.436;2022-07-23T10:07:54;6.43;;;5.83;;
24435;SDS011;12616;52.470;13.436;2022-07-23T10:10:21;9.70;;;7.20;;
24435;SDS011;12616;52.470;13.436;2022-07-23T10:12:54;8.03;;;7.23;;
24435;SDS011;12616;52.470;13.436;2022-07-23T10:15:32;8.30;;;6.30;;
24435;SDS011;12616;52.470;13.436;2022-07-23T10:17:59;5.70;;;5.20;;
24435;SDS011;12616;52.470;13.436;2022-07-23T10:20:25;7.47;;;6.73;;
24435;SDS011;12616;52.470;13.436;2022-07-23T10:22:56;8.50;;;6.00;;
24435;SDS011;12616;52.470;13.436;2022-07-23T10:25:30;13.80;;;6.07;;
24435;SDS011;12616;52.470;13.436;2022-07-23T10:28:06;8.83;;;6.60;;
24435;SDS011;12616;52.470;13.436;2022-07-23T10:30:49;7.70;;;5.33;;
24435;SDS011;12616;52.470;13.436;2022-07-23T10:33:24;6.20;;;5.30;;
24435;SDS011;12616;52.470;13.436;2022-07-23T10:36:00;6.77;;;5.90;;
24435;SDS011;12616;52.470;13.436;2022-07-23T10:38:30;6.13;;;5.43;;
24435;SDS011;12616;52.470;13.436;2022-07-23T10:41:04;5.50;;;5.00;;
24435;SDS011;12616;52.470;13.436;2022-07-23T10:43:32;5.93;;;5.40;;
24435;SDS011;12616;52.470;13.436;2022-07-23T10:48:49;5.63;;;4.97;;
24435;SDS011;12616;52.470;13.436;2022-07-23T10:54:47;6.60;;;4.87;;
24435;SDS011;12616;52.470;13.436;2022-07-23T10:57:16;6.90;;;4.63;;
24435;SDS011;12616;52.470;13.436;2022-07-23T11:02:51;10.33;;;5.10;;
24435;SDS011;12616;52.470;13.436;2022-07-23T11:05:19;6.77;;;5.07;;
24435;SDS011;12616;52.470;13.436;2022-07-23T11:10:40;4.80;;;4.40;;
24435;SDS011;12616;52.470;13.436;2022-07-23T11:16:14;6.10;;;5.50;;
24435;SDS011;12616;52.470;13.436;2022-07-23T11:18:56;4.40;;;4.00;;
24435;SDS011;12616;52.470;13.436;2022-07-23T11:21:40;4.90;;;4.50;;
24435;SDS011;12616;52.470;13.436;2022-07-23T11:24:14;5.57;;;5.07;;
24435;SDS011;12616;52.470;13.436;2022-07-23T11:26:44;6.90;;;4.70;;
24435;SDS011;12616;52.470;13.436;2022-07-23T11:32:19;5.37;;;4.73;;
24435;SDS011;12616;52.470;13.436;2022-07-23T11:35:21;5.77;;;4.60;;
24435;SDS011;12616;52.470;13.436;2022-07-23T11:37:50;6.53;;;4.73;;
24435;SDS011;12616;52.470;13.436;2022-07-23T11:40:23;5.57;;;4.97;;
24435;SDS011;12616;52.470;13.436;2022-07-23T11:42:51;5.10;;;4.63;;
24435;SDS011;12616;52.470;13.436;2022-07-23T11:45:22;5.87;;;4.80;;
24435;SDS011;12616;52.470;13.436;2022-07-23T11:47:50;6.30;;;4.90;;
24435;SDS011;12616;52.470;13.436;2022-07-23T11:50:17;7.47;;;5.30;;
24435;SDS011;12616;52.470;13.436;2022-07-23T11:52:45;6.00;;;4.80;;
24435;SDS011;12616;52.470;13.436;2022-07-23T11:55:11;5.93;;;5.30;;
24435;SDS011;12616;52.470;13.436;2022-07-23T11:57:41;5.33;;;4.93;;
24435;SDS011;12616;52.470;13.436;2022-07-23T12:00:09;5.63;;;4.57;;
24435;SDS011;12616;52.470;13.436;2022-07-23T12:02:37;4.80;;;4.40;;
24435;SDS011;12616;52.470;13.436;2022-07-23T12:05:05;5.90;;;4.83;;
24435;SDS011;12616;52.470;13.436;2022-07-23T12:07:35;7.50;;;5.70;;
24435;SDS011;12616;52.470;13.436;2022-07-23T12:10:08;6.53;;;4.93;;
24435;SDS011;12616;52.470;13.436;2022-07-23T12:12:41;4.87;;;4.47;;
24435;SDS011;12616;52.470;13.436;2022-07-23T12:15:10;5.30;;;4.80;;
24435;SDS011;12616;52.470;13.436;2022-07-23T12:17:39;5.57;;;5.07;;
24435;SDS011;12616;52.470;13.436;2022-07-23T12:20:08;8.43;;;5.40;;
24435;SDS011;12616;52.470;13.436;2022-07-23T12:22:38;5.27;;;4.60;;
24435;SDS011;12616;52.470;13.436;2022-07-23T12:25:08;5.80;;;5.30;;
24435;SDS011;12616;52.470;13.436;2022-07-23T12:27:37;4.90;;;4.50;;
24435;SDS011;12616;52.470;13.436;2022-07-23T12:30:18;5.60;;;4.80;;
24435;SDS011;12616;52.470;13.436;2022-07-23T12:32:50;4.53;;;4.13;;
24435;SDS011;12616;52.470;13.436;2022-07-23T12:35:18;7.73;;;5.03;;
24435;SDS011;12616;52.470;13.436;2022-07-23T12:37:46;7.13;;;5.37;;
24435;SDS011;12616;52.470;13.436;2022-07-23T12:40:19;5.70;;;4.50;;
24435;SDS011;12616;52.470;13.436;2022-07-23T12:42:51;5.17;;;4.53;;
24435;SDS011;12616;52.470;13.436;2022-07-23T12:45:20;7.30;;;4.93;;
24435;SDS011;12616;52.470;13.436;2022-07-23T12:47:51;7.47;;;4.57;;
24435;SDS011;12616;52.470;13.436;2022-07-23T12:50:33;5.53;;;4.87;;
24435;SDS011;12616;52.470;13.436;2022-07-23T12:53:05;5.47;;;4.47;;
24435;SDS011;12616;52.470;13.436;2022-07-23T12:55:36;10.00;;;5.73;;
24435;SDS011;12616;52.470;13.436;2022-07-23T12:58:05;5.80;;;5.20;;
24435;SDS011;12616;52.470;13.436;2022-07-23T13:03:30;5.57;;;5.07;;
24435;SDS011;12616;52.470;13.436;2022-07-23T13:06:00;5.43;;;4.93;;
24435;SDS011;12616;52.470;13.436;2022-07-23T13:08:29;5.07;;;4.67;;
24435;SDS011;12616;52.470;13.436;2022-07-23T13:10:59;4.77;;;4.27;;
24435;SDS011;12616;52.470;13.436;2022-07-23T13:13:27;6.57;;;5.53;;
24435;SDS011;12616;52.470;13.436;2022-07-23T13:15:55;6.17;;;5.77;;
24435;SDS011;12616;52.470;13.436;2022-07-23T13:18:23;5.40;;;4.90;;
24435;SDS011;12616;52.470;13.436;2022-07-23T13:20:50;8.00;;;7.10;;
24435;SDS011;12616;52.470;13.436;2022-07-23T13:23:17;5.83;;;5.33;;
24435;SDS011;12616;52.470;13.436;2022-07-23T13:25:45;5.10;;;4.70;;
24435;SDS011;12616;52.470;13.436;2022-07-23T13:28:13;6.97;;;6.27;;
24435;SDS011;12616;52.470;13.436;2022-07-23T13:30:41;6.23;;;5.70;;
24435;SDS011;12616;52.470;13.436;2022-07-23T13:33:08;5.07;;;4.67;;
24435;SDS011;12616;52.470;13.436;2022-07-23T13:35:35;5.60;;;5.03;;
24435;SDS011;12616;52.470;13.436;2022-07-23T13:38:03;6.03;;;5.17;;
24435;SDS011;12616;52.470;13.436;2022-07-23T13:40:30;5.07;;;4.57;;
24435;SDS011;12616;52.470;13.436;2022-07-23T13:42:56;5.63;;;5.13;;
24435;SDS011;12616;52.470;13.436;2022-07-23T13:45:25;7.97;;;4.90;;
24435;SDS011;12616;52.470;13.436;2022-07-23T13:47:51;5.20;;;4.70;;
24435;SDS011;12616;52.470;13.436;2022-07-23T13:50:19;4.90;;;4.50;;
24435;SDS011;12616;52.470;13.436;2022-07-23T13:52:46;5.93;;;4.90;;
24435;SDS011;12616;52.470;13.436;2022-07-23T13:55:12;4.57;;;4.27;;
24435;SDS011;12616;52.470;13.436;2022-07-23T13:57:39;5.27;;;4.57;;
24435;SDS011;12616;52.470;13.436;2022-07-23T14:00:06;8.40;;;7.10;;
24435;SDS011;12616;52.470;13.436;2022-07-23T14:02:37;5.17;;;4.80;;
24435;SDS011;12616;52.470;13.436;2022-07-23T14:05:05;5.43;;;5.00;;
24435;SDS011;12616;52.470;13.436;2022-07-23T14:07:34;5.20;;;4.50;;
24435;SDS011;12616;52.470;13.436;2022-07-23T14:10:02;5.53;;;5.13;;
24435;SDS011;12616;52.470;13.436;2022-07-23T14:12:29;6.70;;;4.97;;
24435;SDS011;12616;52.470;13.436;2022-07-23T14:14:56;7.60;;;4.57;;
24435;SDS011;12616;52.470;13.436;2022-07-23T14:17:23;5.80;;;4.83;;
24435;SDS011;12616;52.470;13.436;2022-07-23T14:19:51;5.00;;;4.50;;
24435;SDS011;12616;52.470;13.436;2022-07-23T14:22:18;5.47;;;5.00;;
24435;SDS011;12616;52.470;13.436;2022-07-23T14:24:45;5.93;;;4.53;;
24435;SDS011;12616;52.470;13.436;2022-07-23T14:27:12;6.50;;;4.17;;
24435;SDS011;12616;52.470;13.436;2022-07-23T14:29:38;4.57;;;4.17;;
24435;SDS011;12616;52.470;13.436;2022-07-23T14:32:05;3.67;;;3.37;;
24435;SDS011;12616;52.470;13.436;2022-07-23T14:34:32;4.50;;;4.13;;
24435;SDS011;12616;52.470;13.436;2022-07-23T14:37:01;4.23;;;3.93;;
24435;SDS011;12616;52.470;13.436;2022-07-23T14:39:27;4.30;;;3.90;;
24435;SDS011;12616;52.470;13.436;2022-07-23T14:41:54;5.40;;;3.80;;
24435;SDS011;12616;52.470;13.436;2022-07-23T14:44:21;6.33;;;4.70;;
24435;SDS011;12616;52.470;13.436;2022-07-23T14:46:48;4.20;;;3.87;;
24435;SDS011;12616;52.470;13.436;2022-07-23T14:49:15;3.50;;;3.30;;
24435;SDS011;12616;52.470;13.436;2022-07-23T14:51:42;4.07;;;3.77;;
24435;SDS011;12616;52.470;13.436;2022-07-23T14:54:10;5.20;;;3.87;;
24435;SDS011;12616;52.470;13.436;2022-07-23T14:56:38;4.60;;;4.10;;
24435;SDS011;12616;52.470;13.436;2022-07-23T14:59:05;3.93;;;3.50;;
24435;SDS011;12616;52.470;13.436;2022-07-23T15:01:33;3.70;;;3.50;;